createdAt,value
2023-04-08T00:01:26.195Z,19.33
2023-04-08T00:03:54.389Z,19.73
2023-04-08T00:06:22.232Z,19.70
2023-04-08T00:08:50.237Z,19.60
2023-04-08T00:11:19.561Z,19.07
2023-04-08T00:13:47.334Z,19.83
2023-04-08T00:16:15.316Z,19.50
2023-04-08T00:18:43.254Z,19.30
2023-04-08T00:21:10.994Z,17.63
2023-04-08T00:23:38.784Z,20.07
2023-04-08T00:26:06.616Z,18.40
2023-04-08T00:28:35.767Z,20.53
2023-04-08T00:31:03.562Z,21.13
2023-04-08T00:33:31.351Z,18.80
2023-04-08T00:35:59.183Z,18.73
2023-04-08T00:38:27.012Z,19.17
2023-04-08T00:40:54.785Z,20.73
2023-04-08T00:43:22.570Z,20.87
2023-04-08T00:45:51.771Z,20.93
2023-04-08T00:48:19.688Z,21.00
2023-04-08T00:50:47.497Z,19.40
2023-04-08T00:53:17.236Z,19.80
2023-04-08T00:55:45.382Z,21.43
2023-04-08T00:58:14.033Z,21.37
2023-04-08T01:00:44.721Z,21.60
2023-04-08T01:03:18.171Z,19.10
2023-04-08T01:05:52.909Z,20.20
2023-04-08T01:08:20.926Z,22.07
2023-04-08T01:10:51.039Z,21.97
2023-04-08T01:13:19.655Z,25.63
2023-04-08T01:15:47.431Z,25.23
2023-04-08T01:18:17.367Z,20.20
2023-04-08T01:20:46.241Z,23.57
2023-04-08T01:23:17.669Z,22.23
2023-04-08T01:25:48.788Z,21.20
2023-04-08T01:28:17.998Z,22.87
2023-04-08T01:30:47.282Z,22.17
2023-04-08T01:33:16.683Z,19.97
2023-04-08T01:35:44.766Z,21.00
2023-04-08T01:38:15.855Z,21.23
2023-04-08T01:40:43.879Z,20.63
2023-04-08T01:43:15.014Z,20.50
2023-04-08T01:45:43.763Z,19.77
2023-04-08T01:48:12.197Z,20.20
2023-04-08T01:50:41.279Z,22.40
2023-04-08T01:53:10.118Z,22.20
2023-04-08T01:55:38.916Z,22.27
2023-04-08T01:58:08.779Z,21.30
2023-04-08T02:00:38.123Z,23.03
2023-04-08T02:03:07.064Z,22.67
2023-04-08T02:05:35.373Z,22.27
2023-04-08T02:08:03.227Z,23.03
2023-04-08T02:10:31.013Z,23.17
2023-04-08T02:12:58.805Z,21.83
2023-04-08T02:15:27.565Z,27.70
2023-04-08T02:17:57.688Z,20.07
2023-04-08T02:20:32.481Z,22.17
2023-04-08T02:23:05.200Z,24.63
2023-04-08T02:25:36.101Z,21.03
2023-04-08T02:28:05.842Z,25.83
2023-04-08T02:30:34.029Z,23.77
2023-04-08T02:33:04.668Z,23.53
2023-04-08T02:35:32.879Z,23.90
2023-04-08T02:38:00.761Z,26.80
2023-04-08T02:40:30.519Z,25.33
2023-04-08T02:42:58.978Z,24.63
2023-04-08T02:45:29.248Z,27.63
2023-04-08T02:47:57.081Z,24.77
2023-04-08T02:50:26.275Z,27.23
2023-04-08T02:52:54.020Z,25.57
2023-04-08T02:55:21.743Z,26.33
2023-04-08T02:57:49.890Z,23.83
2023-04-08T03:00:18.228Z,26.30
2023-04-08T03:02:46.354Z,24.30
2023-04-08T03:05:16.315Z,23.80
2023-04-08T03:07:45.505Z,24.07
2023-04-08T03:10:13.363Z,26.47
2023-04-08T03:12:41.174Z,28.17
2023-04-08T03:15:09.564Z,27.00
2023-04-08T03:17:37.364Z,24.63
2023-04-08T03:20:06.179Z,25.33
2023-04-08T03:22:34.386Z,26.73
2023-04-08T03:25:03.897Z,24.50
2023-04-08T03:27:31.879Z,28.63
2023-04-08T03:29:59.678Z,26.80
2023-04-08T03:32:27.570Z,26.57
2023-04-08T03:34:55.359Z,25.77
2023-04-08T03:37:23.176Z,26.00
2023-04-08T03:39:50.975Z,28.53
2023-04-08T03:42:20.159Z,26.10
2023-04-08T03:44:47.964Z,28.33
2023-04-08T03:47:15.750Z,28.03
2023-04-08T03:49:43.523Z,29.20
2023-04-08T03:52:11.321Z,28.47
2023-04-08T03:54:39.150Z,31.87
2023-04-08T03:57:06.901Z,28.83
2023-04-08T03:59:36.469Z,29.67
2023-04-08T04:02:04.455Z,33.50
2023-04-08T04:04:32.360Z,32.80
2023-04-08T04:07:00.177Z,33.83
2023-04-08T04:09:28.170Z,33.73
2023-04-08T04:11:55.966Z,31.67
2023-04-08T04:14:23.731Z,33.10
2023-04-08T04:16:52.904Z,31.10
2023-04-08T04:19:20.892Z,31.10
2023-04-08T04:21:48.646Z,35.73
2023-04-08T04:24:16.476Z,31.13
2023-04-08T04:26:44.203Z,31.50
2023-04-08T04:29:11.980Z,35.37
2023-04-08T04:31:39.953Z,33.20
2023-04-08T04:34:09.181Z,35.63
2023-04-08T04:36:36.939Z,34.33
2023-04-08T04:39:04.904Z,31.93
2023-04-08T04:41:32.691Z,34.23
2023-04-08T04:44:00.517Z,33.50
2023-04-08T04:46:28.354Z,31.30
2023-04-08T04:48:56.599Z,31.63
2023-04-08T04:51:26.554Z,31.93
2023-04-08T04:53:54.334Z,32.67
2023-04-08T04:56:22.309Z,31.83
2023-04-08T04:58:50.314Z,33.97
2023-04-08T05:01:18.228Z,38.80
2023-04-08T05:03:46.072Z,34.80
2023-04-08T05:06:13.931Z,39.73
2023-04-08T05:08:43.088Z,33.40
2023-04-08T05:11:11.217Z,36.27
2023-04-08T05:13:38.983Z,36.23
2023-04-08T05:16:07.425Z,36.83
2023-04-08T05:18:35.252Z,35.57
2023-04-08T05:21:03.125Z,38.90
2023-04-08T05:23:30.850Z,36.10
2023-04-08T05:26:00.009Z,38.17
2023-04-08T05:28:27.835Z,38.47
2023-04-08T05:30:56.073Z,36.57
2023-04-08T05:33:23.933Z,39.17
2023-04-08T05:35:51.688Z,34.77
2023-04-08T05:38:19.553Z,37.77
2023-04-08T05:40:47.347Z,38.67
2023-04-08T05:43:16.702Z,36.27
2023-04-08T05:45:44.456Z,35.47
2023-04-08T05:48:12.232Z,36.30
2023-04-08T05:50:40.057Z,34.73
2023-04-08T05:53:07.920Z,34.70
2023-04-08T05:55:35.835Z,35.63
2023-04-08T05:58:03.641Z,33.00
2023-04-08T06:00:32.778Z,32.43
2023-04-08T06:03:00.679Z,33.80
2023-04-08T06:05:28.685Z,33.63
2023-04-08T06:07:56.431Z,34.67
2023-04-08T06:10:24.507Z,34.77
2023-04-08T06:12:52.309Z,38.00
2023-04-08T06:15:21.274Z,116.87
2023-04-08T06:17:50.788Z,35.00
2023-04-08T06:20:18.646Z,33.80
2023-04-08T06:22:46.374Z,33.73
2023-04-08T06:25:14.217Z,33.73
2023-04-08T06:27:42.002Z,31.10
2023-04-08T06:30:10.814Z,30.37
2023-04-08T06:32:38.577Z,30.87
2023-04-08T06:35:09.097Z,32.13
2023-04-08T06:37:38.724Z,28.53
2023-04-08T06:40:07.830Z,30.53
2023-04-08T06:42:36.077Z,29.47
2023-04-08T06:45:03.967Z,27.53
2023-04-08T06:47:31.789Z,26.13
2023-04-08T06:49:59.625Z,25.47
2023-04-08T06:52:28.759Z,26.57
2023-04-08T06:54:56.530Z,27.83
2023-04-08T06:57:24.389Z,24.90
2023-04-08T06:59:53.516Z,28.73
2023-04-08T07:02:22.708Z,26.80
2023-04-08T07:04:50.834Z,24.70
2023-04-08T07:07:18.641Z,27.30
2023-04-08T07:09:47.761Z,26.70
2023-04-08T07:12:15.675Z,29.60
2023-04-08T07:14:43.448Z,24.27
2023-04-08T07:17:11.220Z,33.57
2023-04-08T07:19:39.025Z,23.87
2023-04-08T07:22:06.840Z,25.53
2023-04-08T07:24:34.892Z,25.40
2023-04-08T07:27:04.135Z,27.07
2023-04-08T07:29:32.344Z,25.90
2023-04-08T07:32:00.105Z,26.00
2023-04-08T07:34:27.867Z,39.83
2023-04-08T07:36:55.653Z,28.73
2023-04-08T07:39:23.383Z,51.63
2023-04-08T07:41:51.130Z,30.17
2023-04-08T07:44:20.291Z,45.67
2023-04-08T07:46:51.579Z,40.93
2023-04-08T07:49:19.482Z,32.27
2023-04-08T07:51:47.316Z,32.13
2023-04-08T07:54:17.441Z,31.40
2023-04-08T07:56:45.556Z,34.73
2023-04-08T07:59:13.671Z,34.63
2023-04-08T08:01:42.950Z,31.33
2023-04-08T08:04:10.934Z,31.60
2023-04-08T08:06:38.760Z,31.00
2023-04-08T08:09:06.569Z,32.47
2023-04-08T08:11:34.398Z,36.33
2023-04-08T08:14:02.173Z,31.87
2023-04-08T08:16:30.210Z,33.10
2023-04-08T08:18:59.647Z,32.20
2023-04-08T08:21:27.807Z,31.77
2023-04-08T08:23:56.919Z,31.10
2023-04-08T08:26:24.864Z,29.20
2023-04-08T08:28:52.627Z,26.03
2023-04-08T08:31:20.382Z,30.17
2023-04-08T08:33:48.714Z,27.90
2023-04-08T08:36:18.184Z,27.37
2023-04-08T08:38:46.141Z,29.50
2023-04-08T08:41:13.895Z,28.13
2023-04-08T08:43:41.676Z,26.87
2023-04-08T08:46:11.972Z,28.20
2023-04-08T08:48:40.816Z,25.30
2023-04-08T08:51:10.673Z,29.00
2023-04-08T08:53:40.242Z,26.17
2023-04-08T08:58:41.042Z,22.63
2023-04-08T09:01:34.343Z,29.77
2023-04-08T09:04:09.950Z,28.47
2023-04-08T09:06:37.931Z,40.77
2023-04-08T09:09:10.584Z,24.27
2023-04-08T09:11:40.552Z,22.83
2023-04-08T09:14:19.170Z,49.43
2023-04-08T09:16:47.334Z,22.60
2023-04-08T09:19:15.526Z,33.50
2023-04-08T09:21:43.882Z,24.80
2023-04-08T09:24:30.799Z,21.40
2023-04-08T09:26:58.602Z,20.00
2023-04-08T09:29:30.533Z,22.00
2023-04-08T09:32:02.524Z,20.53
2023-04-08T09:34:32.606Z,20.53
2023-04-08T09:37:00.868Z,21.13
2023-04-08T09:39:30.803Z,19.43
2023-04-08T09:42:01.198Z,21.37
2023-04-08T09:44:30.539Z,22.13
2023-04-08T09:47:03.164Z,19.33
2023-04-08T09:49:35.614Z,21.30
2023-04-08T09:52:08.793Z,21.27
2023-04-08T09:54:45.477Z,23.87
2023-04-08T09:57:16.362Z,18.50
2023-04-08T09:59:51.310Z,23.87
2023-04-08T10:02:26.776Z,22.33
2023-04-08T10:04:56.172Z,26.23
2023-04-08T10:07:24.029Z,23.67
2023-04-08T10:09:53.504Z,21.03
2023-04-08T10:12:21.323Z,20.40
2023-04-08T10:15:22.556Z,20.67
2023-04-08T10:17:50.523Z,21.37
2023-04-08T10:20:45.937Z,19.43
2023-04-08T10:23:14.636Z,23.47
2023-04-08T10:25:45.293Z,19.30
2023-04-08T10:28:34.013Z,18.13
2023-04-08T10:31:03.092Z,18.70
2023-04-08T10:33:37.258Z,21.87
2023-04-08T10:36:11.505Z,16.63
2023-04-08T10:38:39.590Z,16.20
2023-04-08T10:41:08.841Z,17.80
2023-04-08T10:43:37.193Z,15.73
2023-04-08T10:46:05.594Z,16.00
2023-04-08T10:48:33.773Z,17.23
2023-04-08T10:51:08.468Z,17.33
2023-04-08T10:53:37.123Z,17.97
2023-04-08T10:56:06.264Z,16.87
2023-04-08T10:58:36.343Z,17.87
2023-04-08T11:01:05.813Z,15.93
2023-04-08T11:03:34.826Z,17.30
2023-04-08T11:06:03.119Z,15.67
2023-04-08T11:08:31.085Z,16.60
2023-04-08T11:11:01.256Z,18.07
2023-04-08T11:13:29.306Z,17.60
2023-04-08T11:16:00.119Z,16.60
2023-04-08T11:18:28.655Z,16.07
2023-04-08T11:20:58.346Z,17.93
2023-04-08T11:23:27.981Z,17.50
2023-04-08T11:25:56.197Z,17.17
2023-04-08T11:28:24.148Z,15.97
2023-04-08T11:30:52.029Z,14.77
2023-04-08T11:33:21.638Z,14.63
2023-04-08T11:35:53.379Z,15.47
2023-04-08T11:38:23.818Z,14.27
2023-04-08T11:40:54.186Z,13.80
2023-04-08T11:43:22.108Z,12.87
2023-04-08T11:45:49.973Z,14.73
2023-04-08T11:48:18.394Z,13.43
2023-04-08T11:50:47.533Z,11.80
2023-04-08T11:53:19.847Z,13.30
2023-04-08T11:55:48.537Z,12.07
2023-04-08T11:58:16.530Z,14.63
2023-04-08T12:00:45.649Z,12.20
2023-04-08T12:03:13.639Z,12.20
2023-04-08T12:05:42.625Z,14.90
2023-04-08T12:08:11.856Z,12.20
2023-04-08T12:10:39.645Z,12.17
2023-04-08T12:13:07.430Z,20.70
2023-04-08T12:15:35.184Z,14.43
2023-04-08T12:18:03.152Z,24.13
2023-04-08T12:20:31.012Z,15.10
2023-04-08T12:22:58.791Z,10.13
2023-04-08T12:25:31.401Z,15.47
2023-04-08T12:27:59.217Z,10.10
2023-04-08T12:30:26.996Z,15.17
2023-04-08T12:32:55.423Z,17.50
2023-04-08T12:35:23.334Z,10.50
2023-04-08T12:37:51.184Z,10.57
2023-04-08T12:40:19.238Z,13.60
2023-04-08T12:42:48.623Z,10.93
2023-04-08T12:45:16.603Z,10.17
2023-04-08T12:47:44.431Z,10.13
2023-04-08T12:50:12.261Z,11.37
2023-04-08T12:52:40.098Z,12.03
2023-04-08T12:55:08.662Z,10.40
2023-04-08T12:57:36.419Z,12.30
2023-04-08T13:00:06.496Z,14.83
2023-04-08T13:02:34.336Z,16.23
2023-04-08T13:05:02.187Z,13.30
2023-04-08T13:07:30.028Z,12.70
2023-04-08T13:09:57.752Z,12.90
2023-04-08T13:12:25.564Z,11.73
2023-04-08T13:14:53.383Z,11.37
2023-04-08T13:17:22.876Z,13.33
2023-04-08T13:19:51.229Z,11.30
2023-04-08T13:22:19.128Z,13.07
2023-04-08T13:24:46.927Z,9.63
2023-04-08T13:27:14.752Z,12.07
2023-04-08T13:29:42.617Z,10.50
2023-04-08T13:32:10.461Z,9.67
2023-04-08T13:34:39.597Z,10.87
2023-04-08T13:37:07.404Z,10.30
2023-04-08T13:39:35.646Z,10.97
2023-04-08T13:42:03.533Z,9.93
2023-04-08T13:44:33.166Z,7.80
2023-04-08T13:47:00.959Z,10.40
2023-04-08T13:49:28.806Z,8.10
2023-04-08T13:51:57.927Z,8.03
2023-04-08T13:54:25.904Z,8.10
2023-04-08T13:56:53.721Z,11.77
2023-04-08T13:59:21.514Z,9.10
2023-04-08T14:01:53.750Z,9.37
2023-04-08T14:04:21.858Z,9.40
2023-04-08T14:06:51.047Z,10.67
2023-04-08T14:09:20.704Z,9.13
2023-04-08T14:11:48.467Z,10.70
2023-04-08T14:14:16.214Z,10.20
2023-04-08T14:16:44.058Z,8.97
2023-04-08T14:19:11.871Z,8.30
2023-04-08T14:21:39.730Z,8.30
2023-04-08T14:24:07.598Z,9.70
2023-04-08T14:26:36.775Z,8.13
2023-04-08T14:29:05.471Z,9.53
2023-04-08T14:31:33.328Z,7.53
2023-04-08T14:34:01.453Z,10.30
2023-04-08T14:36:30.280Z,9.13
2023-04-08T14:38:58.118Z,6.90
2023-04-08T14:41:27.290Z,8.67
2023-04-08T14:43:56.524Z,10.13
2023-04-08T14:46:26.485Z,8.50
2023-04-08T14:48:55.923Z,8.63
2023-04-08T14:51:23.687Z,6.97
2023-04-08T14:53:51.677Z,10.07
2023-04-08T14:56:19.509Z,7.10
2023-04-08T14:58:47.296Z,7.10
2023-04-08T15:01:16.421Z,7.10
2023-04-08T15:03:44.306Z,9.40
2023-04-08T15:06:16.916Z,7.23
2023-04-08T15:08:45.823Z,6.90
2023-04-08T15:11:13.768Z,8.03
2023-04-08T15:13:41.729Z,7.83
2023-04-08T15:16:09.577Z,7.20
2023-04-08T15:18:38.737Z,8.37
2023-04-08T15:21:06.602Z,8.43
2023-04-08T15:23:34.368Z,9.00
2023-04-08T15:26:03.426Z,8.40
2023-04-08T15:28:31.188Z,7.90
2023-04-08T15:30:59.066Z,7.33
2023-04-08T15:33:27.121Z,8.33
2023-04-08T15:35:57.493Z,10.97
2023-04-08T15:38:25.557Z,9.03
2023-04-08T15:40:53.563Z,7.67
2023-04-08T15:43:21.396Z,7.50
2023-04-08T15:45:49.152Z,7.53
2023-04-08T15:48:16.970Z,8.43
2023-04-08T15:50:44.838Z,7.10
2023-04-08T15:53:13.998Z,7.47
2023-04-08T15:55:42.208Z,7.47
2023-04-08T15:58:10.026Z,7.70
2023-04-08T16:00:37.843Z,14.63
2023-04-08T16:03:08.435Z,21.20
2023-04-08T16:05:39.226Z,15.27
2023-04-08T16:08:07.699Z,12.50
2023-04-08T16:10:37.329Z,8.67
2023-04-08T16:13:05.116Z,7.73
2023-04-08T16:15:34.147Z,6.97
2023-04-08T16:18:03.094Z,6.33
2023-04-08T16:20:30.890Z,7.07
2023-04-08T16:22:58.633Z,9.30
2023-04-08T16:25:28.175Z,6.70
2023-04-08T16:27:57.471Z,8.20
2023-04-08T16:30:25.303Z,9.90
2023-04-08T16:32:53.134Z,8.30
2023-04-08T16:35:22.348Z,9.50
2023-04-08T16:37:50.192Z,9.13
2023-04-08T16:40:18.286Z,7.10
2023-04-08T16:42:46.121Z,8.90
2023-04-08T16:45:15.778Z,8.27
2023-04-08T16:47:44.475Z,10.13
2023-04-08T16:50:12.484Z,7.63
2023-04-08T16:52:40.266Z,6.57
2023-04-08T16:55:09.198Z,7.53
2023-04-08T16:57:36.974Z,7.13
2023-04-08T17:00:05.232Z,6.13
2023-04-08T17:02:34.478Z,9.13
2023-04-08T17:05:02.315Z,6.47
2023-04-08T17:07:31.202Z,9.00
2023-04-08T17:09:59.043Z,5.80
2023-04-08T17:12:26.839Z,7.53
2023-04-08T17:14:54.678Z,6.70
2023-04-08T17:17:22.480Z,7.90
2023-04-08T17:19:52.003Z,6.40
2023-04-08T17:22:19.751Z,6.73
2023-04-08T17:24:48.187Z,8.77
2023-04-08T17:27:16.160Z,6.23
2023-04-08T17:29:43.956Z,8.00
2023-04-08T17:32:12.518Z,8.33
2023-04-08T17:34:41.016Z,7.97
2023-04-08T17:37:10.481Z,5.60
2023-04-08T17:39:40.931Z,9.60
2023-04-08T17:42:08.963Z,7.00
2023-04-08T17:44:36.903Z,7.03
2023-04-08T17:47:04.972Z,6.57
2023-04-08T17:49:32.792Z,7.33
2023-04-08T17:52:00.640Z,8.33
2023-04-08T17:54:31.468Z,7.83
2023-04-08T17:56:59.263Z,7.13
2023-04-08T17:59:27.071Z,7.63
2023-04-08T18:01:54.968Z,8.50
2023-04-08T18:04:22.954Z,7.27
2023-04-08T18:06:50.795Z,9.30
2023-04-08T18:09:18.556Z,7.67
2023-04-08T18:11:47.639Z,9.70
2023-04-08T18:14:15.418Z,9.50
2023-04-08T18:16:43.282Z,8.50
2023-04-08T18:19:11.069Z,9.53
2023-04-08T18:21:38.908Z,8.77
2023-04-08T18:24:08.722Z,10.33
2023-04-08T18:26:37.106Z,8.40
2023-04-08T18:29:06.761Z,9.70
2023-04-08T18:31:34.648Z,9.50
2023-04-08T18:34:03.186Z,8.20
2023-04-08T18:36:31.742Z,9.00
2023-04-08T18:38:59.488Z,8.40
2023-04-08T18:41:28.018Z,9.43
2023-04-08T18:43:56.003Z,9.57
2023-04-08T18:46:25.256Z,9.70
2023-04-08T18:48:53.066Z,9.87
2023-04-08T18:51:20.850Z,10.03
2023-04-08T18:53:49.855Z,9.47
2023-04-08T18:56:18.004Z,10.20
2023-04-08T18:58:46.326Z,10.53
2023-04-08T19:01:14.372Z,9.77
2023-04-08T19:03:44.356Z,11.73
2023-04-08T19:06:13.040Z,11.13
2023-04-08T19:08:41.491Z,9.57
2023-04-08T19:11:09.252Z,10.63
2023-04-08T19:13:37.075Z,12.10
2023-04-08T19:16:05.149Z,12.00
2023-04-08T19:18:32.980Z,9.73
2023-04-08T19:21:03.601Z,9.20
2023-04-08T19:23:32.108Z,10.40
2023-04-08T19:25:59.915Z,10.57
2023-04-08T19:28:27.633Z,12.33
2023-04-08T19:30:55.423Z,10.97
2023-04-08T19:33:23.668Z,8.93
2023-04-08T19:35:51.483Z,10.07
2023-04-08T19:38:20.624Z,9.27
2023-04-08T19:40:49.254Z,9.40
2023-04-08T19:43:17.918Z,9.70
2023-04-08T19:45:46.321Z,12.70
2023-04-08T19:48:14.226Z,11.03
2023-04-08T19:50:42.745Z,7.70
2023-04-08T19:53:10.482Z,6.60
2023-04-08T19:55:39.817Z,9.00
2023-04-08T19:58:07.900Z,7.03
2023-04-08T20:00:37.408Z,6.43
2023-04-08T20:03:05.859Z,6.03
2023-04-08T20:05:33.872Z,6.73
2023-04-08T20:08:01.656Z,7.27
2023-04-08T20:10:29.571Z,6.00
2023-04-08T20:12:58.698Z,5.63
2023-04-08T20:15:26.594Z,5.03
2023-04-08T20:17:54.462Z,5.67
2023-04-08T20:20:22.911Z,5.63
2023-04-08T20:22:50.855Z,6.43
2023-04-08T20:25:18.752Z,12.33
2023-04-08T20:27:46.599Z,5.23
2023-04-08T20:30:15.848Z,6.63
2023-04-08T20:32:43.633Z,5.70
2023-04-08T20:35:11.830Z,5.20
2023-04-08T20:37:39.566Z,5.40
2023-04-08T20:40:09.206Z,5.47
2023-04-08T20:42:38.610Z,6.47
2023-04-08T20:45:07.543Z,6.90
2023-04-08T20:47:36.714Z,5.70
2023-04-08T20:50:04.911Z,5.63
2023-04-08T20:52:32.724Z,7.83
2023-04-08T20:55:00.629Z,5.23
2023-04-08T20:57:28.414Z,4.80
2023-04-08T20:59:56.144Z,5.03
2023-04-08T21:02:24.342Z,6.17
2023-04-08T21:04:53.658Z,8.40
2023-04-08T21:07:32.874Z,6.03
2023-04-08T21:10:01.152Z,5.70
2023-04-08T21:12:35.029Z,6.80
2023-04-08T21:15:02.758Z,6.40
2023-04-08T21:17:31.279Z,5.70
2023-04-08T21:20:00.521Z,5.47
2023-04-08T21:22:28.886Z,6.10
2023-04-08T21:24:57.891Z,5.23
2023-04-08T21:27:25.666Z,6.47
2023-04-08T21:29:53.495Z,5.40
2023-04-08T21:32:21.257Z,4.90
2023-04-08T21:34:49.060Z,5.47
2023-04-08T21:37:18.339Z,6.07
2023-04-08T21:39:46.809Z,6.17
2023-04-08T21:42:14.556Z,5.37
2023-04-08T21:44:42.478Z,6.37
2023-04-08T21:47:10.744Z,5.53
2023-04-08T21:49:38.520Z,6.33
2023-04-08T21:52:06.854Z,4.93
2023-04-08T21:54:36.460Z,5.87
2023-04-08T21:57:04.634Z,4.53
2023-04-08T21:59:32.380Z,6.03
2023-04-08T22:02:03.919Z,5.57
2023-04-08T22:04:31.812Z,5.23
2023-04-08T22:06:59.795Z,4.80
2023-04-08T22:09:27.890Z,5.73
2023-04-08T22:11:57.967Z,5.03
2023-04-08T22:14:26.149Z,5.90
2023-04-08T22:16:54.706Z,5.57
2023-04-08T22:19:22.505Z,6.80
2023-04-08T22:21:51.255Z,4.77
2023-04-08T22:24:19.572Z,5.70
2023-04-08T22:26:47.433Z,5.20
2023-04-08T22:29:17.351Z,4.57
2023-04-08T22:31:45.578Z,5.30
2023-04-08T22:34:13.681Z,4.87
2023-04-08T22:36:41.572Z,4.47
2023-04-08T22:39:09.579Z,5.20
2023-04-08T22:41:37.409Z,5.87
2023-04-08T22:44:05.441Z,6.17
2023-04-08T22:46:35.044Z,4.73
2023-04-08T22:49:03.325Z,4.60
2023-04-08T22:51:31.046Z,6.23
2023-04-08T22:53:59.261Z,5.77
2023-04-08T22:56:28.937Z,4.63
2023-04-08T22:58:56.796Z,5.63
2023-04-08T23:01:24.757Z,5.50
2023-04-08T23:03:54.395Z,4.93
2023-04-08T23:06:22.492Z,5.20
2023-04-08T23:08:50.539Z,5.03
2023-04-08T23:11:19.053Z,4.70
2023-04-08T23:13:47.039Z,4.60
2023-04-08T23:16:14.902Z,4.73
2023-04-08T23:18:43.139Z,4.83
2023-04-08T23:21:12.338Z,5.70
2023-04-08T23:23:40.100Z,5.13
2023-04-08T23:26:07.945Z,4.90
2023-04-08T23:28:35.766Z,6.10
2023-04-08T23:31:05.340Z,5.73
2023-04-08T23:33:33.132Z,6.93
2023-04-08T23:36:00.898Z,6.63
2023-04-08T23:38:30.039Z,6.07
2023-04-08T23:40:57.759Z,5.10
2023-04-08T23:43:25.533Z,5.20
2023-04-08T23:45:53.260Z,4.53
2023-04-08T23:48:21.007Z,5.43
2023-04-08T23:50:52.315Z,5.17
2023-04-08T23:53:20.273Z,5.27
2023-04-08T23:55:49.411Z,5.13
2023-04-08T23:58:17.277Z,5.07
